Time;durP1;ratioP1;P1;durP2;ratioP2;P2;SDS_P1;SDS_P2;PMS_P1;PMS_P2;Temp;Humidity;BMP_temperature;BMP_pressure;BME280_temperature;BME280_humidity;BME280_pressure;Samples;Min_cycle;Max_cycle;Signal;HPM_P1;HPM_P2
2024/04/18 00:00:34;;;;;;;7.25;5.10;;;;;;;7.79;44.73;100944.41;5256580;27;20017;-83
2024/04/18 00:03:04;;;;;;;7.63;5.18;;;;;;;7.80;44.77;100953.44;5267205;27;21037;-83
2024/04/18 00:05:31;;;;;;;7.65;5.40;;;;;;;7.78;45.06;100941.78;5272659;27;20024;-82
2024/04/18 00:08:01;;;;;;;8.38;5.30;;;;;;;7.79;45.33;100959.88;5268008;27;20010;-83
2024/04/18 00:10:28;;;;;;;7.80;5.20;;;;;;;7.79;44.99;100960.75;5260372;27;20668;-83
2024/04/18 00:13:00;;;;;;;6.38;4.32;;;;;;;7.80;45.17;100965.22;5249685;27;20025;-84
2024/04/18 00:15:28;;;;;;;6.82;4.72;;;;;;;7.76;44.80;100954.66;5296000;26;20007;-83
2024/04/18 00:17:58;;;;;;;6.45;4.55;;;;;;;7.77;45.30;100962.69;5266799;27;20082;-84
2024/04/18 00:20:27;;;;;;;7.25;5.13;;;;;;;7.79;45.43;100971.63;5253968;27;20018;-83
2024/04/18 00:23:17;;;;;;;6.70;4.55;;;;;;;7.76;45.33;100973.75;5297287;27;20040;-84
2024/04/18 00:26:04;;;;;;;7.30;4.55;;;;;;;7.75;45.23;100967.41;5297435;27;20123;-83
2024/04/18 00:28:36;;;;;;;8.05;5.07;;;;;;;7.77;45.23;100968.16;5256993;27;20021;-83
2024/04/18 00:31:13;;;;;;;7.45;5.05;;;;;;;7.76;45.22;100971.88;5286177;27;20021;-82
2024/04/18 00:33:58;;;;;;;9.52;6.00;;;;;;;7.77;45.24;100975.44;5268166;27;20021;-83
2024/04/18 00:36:28;;;;;;;10.25;5.97;;;;;;;7.74;45.14;100965.69;5275669;27;20080;-82
2024/04/18 00:38:58;;;;;;;8.48;5.63;;;;;;;7.75;45.22;100970.16;5289325;27;20010;-83
2024/04/18 00:41:25;;;;;;;8.63;5.82;;;;;;;7.75;45.28;100969.28;5254776;27;20034;-84
2024/04/18 00:44:03;;;;;;;;;;;;;;;7.50;45.93;100965.63;5259005;27;20050;-83
2024/04/18 00:46:31;;;;;;;8.75;5.53;;;;;;;7.68;45.04;100966.13;5230949;27;19928;-83
2024/04/18 00:49:01;;;;;;;8.95;6.32;;;;;;;7.74;45.04;100962.06;5229905;27;20011;-84
2024/04/18 00:51:29;;;;;;;10.27;6.53;;;;;;;7.70;45.00;100961.41;5248618;27;20021;-84
2024/04/18 00:53:59;;;;;;;10.05;6.47;;;;;;;7.72;45.17;100967.63;5266079;27;20054;-85
2024/04/18 00:56:27;;;;;;;9.65;6.72;;;;;;;7.72;45.25;100969.50;5263349;27;20055;-84
2024/04/18 00:59:18;;;;;;;11.48;7.35;;;;;;;7.72;45.13;100981.25;5293334;26;20032;-84
2024/04/18 01:02:05;;;;;;;9.57;6.23;;;;;;;7.65;45.19;100974.53;5293464;27;20014;-83
2024/04/18 01:04:39;;;;;;;10.48;7.05;;;;;;;7.69;45.42;100980.59;5318136;26;20012;-83
2024/04/18 01:07:12;;;;;;;10.48;6.93;;;;;;;7.68;45.13;100987.06;5255843;27;20006;-84
2024/04/18 01:09:48;;;;;;;10.40;7.18;;;;;;;7.65;45.22;100985.41;5301295;26;20394;-83
2024/04/18 01:12:15;;;;;;;11.32;8.35;;;;;;;7.67;45.47;100996.22;5258460;27;20496;-84
2024/04/18 01:14:48;;;;;;;12.48;8.05;;;;;;;7.68;45.41;100995.22;5257405;27;20010;-84
2024/04/18 01:17:31;;;;;;;12.15;8.25;;;;;;;7.61;44.69;100993.91;5312573;26;20014;-83
2024/04/18 01:20:04;;;;;;;14.13;8.38;;;;;;;7.62;45.37;100995.66;5319440;26;20041;-83
2024/04/18 01:22:31;;;;;;;13.40;8.43;;;;;;;7.58;45.04;100995.03;5246131;27;20635;-82
2024/04/18 01:25:01;;;;;;;13.82;9.65;;;;;;;7.56;45.00;101000.59;5311666;26;20018;-83
2024/04/18 01:27:31;;;;;;;13.80;8.80;;;;;;;7.53;45.22;101002.66;5265720;27;20005;-84
2024/04/18 01:30:03;;;;;;;13.10;8.25;;;;;;;7.50;45.31;100992.00;5267433;27;20084;-83
2024/04/18 01:32:37;;;;;;;12.93;8.73;;;;;;;7.46;45.11;100998.63;5266004;27;20049;-84
2024/04/18 01:35:08;;;;;;;12.77;7.93;;;;;;;7.45;44.91;100991.44;5310659;26;20006;-83
2024/04/18 01:37:45;;;;;;;13.45;8.73;;;;;;;7.41;45.45;100996.25;5289296;26;20007;-84
2024/04/18 01:40:15;;;;;;;14.15;8.40;;;;;;;7.40;45.07;100999.06;5250825;27;20006;-83
2024/04/18 01:42:45;;;;;;;13.40;8.93;;;;;;;7.41;45.49;101001.69;5228730;27;20011;-84
2024/04/18 01:45:27;;;;;;;13.32;8.00;;;;;;;7.39;45.26;101000.06;5279780;27;20011;-83
2024/04/18 01:48:29;;;;;;;12.27;7.78;;;;;;;7.36;45.19;101000.25;5227827;27;20304;-83
2024/04/18 01:51:15;;;;;;;11.63;7.25;;;;;;;7.35;45.35;101007.59;5262849;27;20020;-84
2024/04/18 01:53:45;;;;;;;10.77;7.13;;;;;;;7.37;45.44;101011.06;5228616;27;20006;-83
2024/04/18 01:56:21;;;;;;;12.05;7.63;;;;;;;7.37;45.39;101011.06;5273154;27;20078;-83
2024/04/18 01:58:53;;;;;;;12.20;7.82;;;;;;;7.38;45.29;101011.91;5278601;27;20503;-84
2024/04/18 02:01:24;;;;;;;13.15;7.72;;;;;;;7.36;45.48;101016.59;5229379;27;20014;-83
2024/04/18 02:03:54;;;;;;;10.35;7.40;;;;;;;7.38;45.25;101018.25;5235289;27;20007;-84
2024/04/18 02:06:21;;;;;;;11.18;7.07;;;;;;;7.37;45.50;101010.19;5210331;27;20065;-84
2024/04/18 02:08:51;;;;;;;12.05;7.40;;;;;;;7.38;45.55;101020.97;5250537;27;20382;-84
2024/04/18 02:11:40;;;;;;;10.60;6.97;;;;;;;7.37;45.51;101021.06;5251390;27;20047;-82
2024/04/18 02:14:16;;;;;;;10.52;7.53;;;;;;;7.36;45.98;101024.78;5228438;27;20005;-83
2024/04/18 02:16:43;;;;;;;9.95;7.10;;;;;;;7.33;45.39;101020.44;5249831;27;20467;-83
2024/04/18 02:19:25;;;;;;;10.27;6.63;;;;;;;7.33;45.12;101030.44;5263835;27;20062;-83
2024/04/18 02:22:18;;;;;;;9.88;6.50;;;;;;;7.31;45.49;101029.69;5257626;27;20015;-84
2024/04/18 02:25:10;;;;;;;10.32;6.47;;;;;;;7.31;45.37;101033.28;5282330;27;20077;-83
2024/04/18 02:27:39;;;;;;;8.68;5.47;;;;;;;7.29;45.33;101039.81;5251225;27;20014;-84
2024/04/18 02:30:27;;;;;;;8.48;5.47;;;;;;;7.29;45.72;101040.69;5256282;27;20018;-84
2024/04/18 02:33:14;;;;;;;8.32;5.35;;;;;;;7.28;45.73;101043.50;5247759;27;20385;-84
2024/04/18 02:35:47;;;;;;;8.45;5.40;;;;;;;7.24;45.57;101037.41;5295553;26;20572;-83
2024/04/18 02:38:33;;;;;;;8.52;4.88;;;;;;;7.24;45.74;101031.97;5257114;27;20018;-82
2024/04/18 02:41:05;;;;;;;8.95;5.68;;;;;;;7.24;45.43;101033.81;5222179;27;20572;-82
2024/04/18 02:43:49;;;;;;;8.73;5.55;;;;;;;7.23;45.58;101032.94;5242815;26;20021;-82
2024/04/18 02:46:21;;;;;;;6.75;4.72;;;;;;;7.24;45.45;101034.69;5222299;27;20010;-82
2024/04/18 02:49:07;;;;;;;7.22;4.35;;;;;;;7.20;45.42;101035.88;5292034;27;20013;-82
2024/04/18 02:51:56;;;;;;;6.70;4.18;;;;;;;7.19;45.37;101040.44;5286548;26;20021;-82
2024/04/18 02:54:42;;;;;;;6.55;4.35;;;;;;;7.17;45.57;101045.16;5255817;27;20051;-82
2024/04/18 02:57:12;;;;;;;7.15;4.55;;;;;;;7.15;45.24;101049.81;5249475;27;20012;-82
2024/04/18 02:59:40;;;;;;;7.65;4.65;;;;;;;7.15;45.60;101054.41;5245903;27;20006;-82
2024/04/18 03:02:29;;;;;;;7.68;4.65;;;;;;;7.15;45.65;101052.56;5242041;27;20007;-81
2024/04/18 03:05:16;;;;;;;6.97;4.72;;;;;;;7.13;45.70;101054.50;5255908;27;20545;-81
2024/04/18 03:07:46;;;;;;;8.85;4.57;;;;;;;7.13;45.33;101062.66;5267510;27;19998;-80
2024/04/18 03:10:14;;;;;;;7.38;4.72;;;;;;;7.13;45.55;101070.84;5208599;27;20443;-82
2024/04/18 03:13:02;;;;;;;7.05;4.40;;;;;;;7.12;45.33;101077.25;5210815;27;20012;-82
2024/04/18 03:15:47;;;;;;;6.32;4.10;;;;;;;7.08;45.31;101083.91;5250180;27;20086;-82
2024/04/18 03:18:20;;;;;;;6.25;3.95;;;;;;;7.11;45.47;101089.09;5258409;27;20055;-81
2024/04/18 03:21:04;;;;;;;6.07;3.95;;;;;;;7.07;45.06;101084.88;5246155;27;20029;-81
2024/04/18 03:23:43;;;;;;;6.55;4.30;;;;;;;7.06;45.31;101087.69;5230671;27;20102;-82
2024/04/18 03:26:30;;;;;;;6.57;4.03;;;;;;;7.04;45.25;101085.06;5244047;27;20034;-81
2024/04/18 03:29:00;;;;;;;6.43;4.28;;;;;;;7.05;45.67;101096.84;5258050;27;20382;-82
2024/04/18 03:31:27;;;;;;;7.40;4.30;;;;;;;7.05;45.84;101096.84;5267179;27;20007;-82
2024/04/18 03:34:00;;;;;;;5.85;3.67;;;;;;;7.06;45.73;101090.41;5218934;27;20395;-82
2024/04/18 03:36:27;;;;;;;6.45;4.10;;;;;;;7.02;45.57;101099.78;5229339;27;20058;-82
2024/04/18 03:39:04;;;;;;;5.68;3.75;;;;;;;7.06;45.81;101101.31;5277946;27;20007;-82
2024/04/18 03:41:34;;;;;;;5.95;4.22;;;;;;;7.03;45.47;101096.94;5275815;27;20007;-82
2024/04/18 03:44:16;;;;;;;6.43;4.10;;;;;;;7.02;45.92;101106.09;5279202;27;20098;-82
2024/04/18 03:46:48;;;;;;;6.10;3.90;;;;;;;7.03;46.08;101102.38;5219016;27;20007;-82
2024/04/18 03:49:37;;;;;;;5.80;3.70;;;;;;;7.02;45.90;101100.66;5259129;27;20009;-82
2024/04/18 03:52:05;;;;;;;6.10;3.67;;;;;;;7.00;45.88;101108.06;5255123;27;20009;-83
2024/04/18 03:54:35;;;;;;;5.80;3.35;;;;;;;7.02;45.74;101103.38;5252611;27;20025;-82
2024/04/18 03:57:39;;;;;;;5.30;3.60;;;;;;;7.02;45.83;101118.84;5304154;26;20021;-82
2024/04/18 04:00:10;;;;;;;6.20;3.65;;;;;;;7.03;45.61;101110.53;5252419;27;20457;-82
2024/04/18 04:02:38;;;;;;;5.10;3.50;;;;;;;7.04;45.84;101123.19;5296341;27;20052;-80
2024/04/18 04:05:11;;;;;;;6.00;3.53;;;;;;;7.06;45.89;101123.94;5258132;27;20028;-82
2024/04/18 04:07:41;;;;;;;7.28;4.18;;;;;;;7.02;46.00;101121.56;5279187;27;20009;-82
2024/04/18 04:10:08;;;;;;;5.93;3.88;;;;;;;7.04;45.72;101119.59;5323829;26;20405;-81
2024/04/18 04:12:39;;;;;;;5.80;3.92;;;;;;;7.04;45.69;101123.19;5267753;27;20360;-82
2024/04/18 04:15:07;;;;;;;5.80;3.58;;;;;;;7.06;45.90;101128.53;5258062;27;20520;-82
2024/04/18 04:17:39;;;;;;;6.07;4.10;;;;;;;7.07;45.86;101127.53;5262113;27;20010;-82
2024/04/18 04:20:15;;;;;;;5.82;3.53;;;;;;;7.08;46.36;101130.16;5260469;27;20024;-82
2024/04/18 04:22:45;;;;;;;5.90;3.80;;;;;;;7.03;45.54;101132.31;5287075;27;20399;-82
2024/04/18 04:25:22;;;;;;;5.88;3.80;;;;;;;7.05;45.54;101140.38;5294997;27;20002;-83
2024/04/18 04:27:52;;;;;;;5.65;3.45;;;;;;;7.06;46.02;101139.41;5251081;27;20020;-82
2024/04/18 04:30:20;;;;;;;5.32;3.58;;;;;;;7.04;46.08;101149.50;5319861;26;20017;-82
2024/04/18 04:32:50;;;;;;;5.57;3.83;;;;;;;7.05;45.86;101153.97;5272013;27;20002;-83
2024/04/18 04:35:35;;;;;;;5.53;3.63;;;;;;;7.05;45.92;101159.44;5323668;26;20066;-82
2024/04/18 04:38:05;;;;;;;5.97;4.00;;;;;;;7.05;45.60;101167.59;5275222;27;20010;-83
2024/04/18 04:40:33;;;;;;;5.43;3.47;;;;;;;7.04;46.02;101183.03;5255652;27;20006;-83
2024/04/18 04:43:02;;;;;;;5.22;3.35;;;;;;;7.04;46.12;101179.44;5316414;26;20081;-83
2024/04/18 04:45:33;;;;;;;5.57;3.65;;;;;;;7.02;46.18;101186.88;5275211;27;20002;-84
2024/04/18 04:48:10;;;;;;;6.00;3.72;;;;;;;7.03;45.73;101194.91;5261764;27;20013;-83
2024/04/18 04:51:07;;;;;;;5.68;3.60;;;;;;;7.05;46.39;101197.53;5266585;27;20050;-83
2024/04/18 04:53:35;;;;;;;5.82;3.60;;;;;;;7.03;46.12;101188.59;5241226;27;20039;-83
2024/04/18 04:56:05;;;;;;;6.10;3.60;;;;;;;7.04;46.17;101193.06;5232287;27;20386;-83
2024/04/18 04:58:33;;;;;;;5.95;4.18;;;;;;;7.05;46.32;101192.09;5304753;26;20485;-84
2024/04/18 05:01:03;;;;;;;6.85;4.10;;;;;;;7.05;46.43;101201.13;5245158;27;20017;-83
2024/04/18 05:03:36;;;;;;;5.43;3.83;;;;;;;7.04;46.07;101193.94;5314033;26;20560;-84
2024/04/18 05:06:33;;;;;;;6.30;3.63;;;;;;;7.08;46.29;101205.50;5283238;27;20014;-83
2024/04/18 05:09:18;;;;;;;6.68;3.88;;;;;;;7.09;46.53;101205.41;5261780;26;20054;-83
2024/04/18 05:11:46;;;;;;;5.65;3.67;;;;;;;7.08;46.07;101205.50;5247648;27;20023;-83
2024/04/18 05:14:34;;;;;;;4.88;3.30;;;;;;;7.06;46.49;101211.03;5248889;27;20002;-83
2024/04/18 05:17:21;;;;;;;6.00;3.70;;;;;;;7.05;46.31;101220.19;5270977;27;20526;-83
2024/04/18 05:20:12;;;;;;;5.50;3.50;;;;;;;7.10;46.36;101234.38;5268525;27;20010;-83
2024/04/18 05:22:42;;;;;;;6.78;3.78;;;;;;;7.11;46.57;101230.63;5268104;27;20085;-83
2024/04/18 05:25:16;;;;;;;6.18;3.50;;;;;;;7.13;46.31;101231.41;5241975;27;20002;-85
2024/04/18 05:28:20;;;;;;;6.32;4.00;;;;;;;7.13;46.35;101241.44;5280093;27;20014;-84
2024/04/18 05:31:06;;;;;;;4.88;3.30;;;;;;;7.15;46.46;101243.09;5303417;26;20018;-84
2024/04/18 05:33:36;;;;;;;5.07;3.33;;;;;;;7.15;46.12;101244.94;5271758;26;20074;-83
2024/04/18 05:36:07;;;;;;;7.13;3.80;;;;;;;7.15;46.19;101251.25;5232497;27;20014;-84
2024/04/18 05:38:40;;;;;;;5.68;3.65;;;;;;;7.18;46.23;101251.06;5238054;27;20021;-84
2024/04/18 05:41:10;;;;;;;;;;;;;;;6.95;47.38;101259.84;5258903;26;20016;-83
2024/04/18 05:43:52;;;;;;;5.57;3.30;;;;;;;7.15;46.40;101264.84;5217779;27;19927;-84
2024/04/18 05:46:19;;;;;;;5.30;3.30;;;;;;;7.17;46.23;101260.19;5217783;27;20083;-84
2024/04/18 05:48:49;;;;;;;5.28;3.38;;;;;;;7.20;46.04;101273.56;5298923;26;20002;-84
2024/04/18 05:51:20;;;;;;;6.60;4.32;;;;;;;7.19;46.27;101277.28;5222536;27;20026;-84
2024/04/18 05:54:12;;;;;;;4.93;3.15;;;;;;;7.23;46.50;101280.69;5225586;27;20101;-83
2024/04/18 05:57:02;;;;;;;5.53;3.83;;;;;;;7.22;46.39;101280.78;5241642;27;20423;-84
2024/04/18 05:59:49;;;;;;;6.03;3.70;;;;;;;7.23;46.45;101283.41;5250740;27;20018;-84
2024/04/18 06:02:24;;;;;;;6.30;3.63;;;;;;;7.28;46.13;101297.56;5217172;27;20018;-83
2024/04/18 06:04:57;;;;;;;5.05;3.58;;;;;;;7.28;46.39;101299.41;5208554;27;20016;-83
2024/04/18 06:07:59;;;;;;;7.00;3.58;;;;;;;7.27;46.30;101306.69;5252283;27;20561;-84
2024/04/18 06:10:32;;;;;;;5.93;3.60;;;;;;;7.33;46.50;101310.88;5260667;27;20037;-84
2024/04/18 06:13:24;;;;;;;5.55;3.03;;;;;;;7.31;46.51;101307.38;5264226;27;20009;-84
2024/04/18 06:15:56;;;;;;;7.03;3.10;;;;;;;7.33;46.57;101310.88;5302752;26;20003;-82
2024/04/18 06:18:29;;;;;;;5.85;3.05;;;;;;;7.38;46.51;101319.59;5267732;27;20710;-85
2024/04/18 06:21:15;;;;;;;;;;;;;;;;;;;;;
2024/04/18 06:23:52;;;;;;;5.75;3.00;;;;;;;7.45;47.27;101326.38;5262612;27;20124;-82
2024/04/18 06:26:26;;;;;;;4.60;2.88;;;;;;;7.52;47.35;101319.53;5315705;26;20815;-82
2024/04/18 06:28:57;;;;;;;5.25;3.05;;;;;;;7.57;47.17;101334.63;5317225;26;20467;-82
2024/04/18 06:31:40;;;;;;;5.13;2.90;;;;;;;7.64;47.36;101329.63;5269204;27;20011;-81
2024/04/18 06:34:10;;;;;;;6.97;2.80;;;;;;;7.74;47.47;101330.75;5264321;27;20007;-81
2024/04/18 06:36:40;;;;;;;5.97;3.40;;;;;;;7.83;47.40;101338.31;5254218;27;20026;-81
2024/04/18 06:39:10;;;;;;;6.70;3.28;;;;;;;7.91;47.79;101335.06;5210341;27;20007;-81
2024/04/18 06:41:42;;;;;;;5.43;3.28;;;;;;;8.03;47.57;101349.66;5220135;27;20007;-81
2024/04/18 06:44:12;;;;;;;5.18;3.25;;;;;;;8.06;47.48;101342.16;5274780;27;20026;-81
2024/04/18 06:46:42;;;;;;;5.80;3.17;;;;;;;8.17;47.46;101345.06;5250166;27;20010;-81
2024/04/18 06:49:28;;;;;;;4.57;3.00;;;;;;;8.22;47.44;101353.78;5231675;27;20018;-81
2024/04/18 06:52:01;;;;;;;5.95;3.05;;;;;;;8.36;47.34;101352.78;5277006;26;20010;-80
2024/04/18 06:54:30;;;;;;;5.18;3.13;;;;;;;8.42;47.73;101349.66;5218309;27;20007;-81
2024/04/18 06:57:04;;;;;;;5.82;3.17;;;;;;;8.58;47.48;101354.88;5257561;27;20406;-82
2024/04/18 06:59:34;;;;;;;5.47;3.42;;;;;;;8.70;47.82;101362.19;5205384;27;20007;-82
2024/04/18 07:02:05;;;;;;;5.82;2.97;;;;;;;8.81;47.77;101356.84;5247642;27;20314;-81
2024/04/18 07:04:55;;;;;;;5.45;3.00;;;;;;;8.98;47.72;101367.41;5277874;27;20079;-82
2024/04/18 07:07:45;;;;;;;4.25;2.72;;;;;;;9.15;47.60;101366.16;5241957;27;20954;-81
2024/04/18 07:10:35;;;;;;;5.25;2.67;;;;;;;9.32;47.38;101374.00;5227638;27;20021;-81
2024/04/18 07:13:26;;;;;;;4.97;2.50;;;;;;;9.51;46.79;101378.09;5246389;27;20078;-81
2024/04/18 07:15:56;;;;;;;4.40;2.40;;;;;;;9.61;46.76;101371.81;5212472;27;20015;-82
2024/04/18 07:18:45;;;;;;;4.13;2.25;;;;;;;9.78;46.74;101376.88;5240895;27;20022;-83
2024/04/18 07:21:17;;;;;;;3.45;2.28;;;;;;;9.93;45.61;101377.56;5239004;27;20039;-82
2024/04/18 07:23:47;;;;;;;;;;;;;;;9.76;46.14;101380.72;5223521;27;20471;-82
2024/04/18 07:26:37;;;;;;;4.70;2.15;;;;;;;10.12;46.61;101380.63;5238340;27;20296;-81
2024/04/18 07:29:10;;;;;;;4.93;2.13;;;;;;;10.31;45.54;101376.47;5261848;27;20005;-81
2024/04/18 07:31:39;;;;;;;5.10;2.30;;;;;;;10.40;46.07;101386.72;5272942;27;20006;-82
2024/04/18 07:34:15;;;;;;;4.07;2.20;;;;;;;10.55;45.54;101391.00;5259140;27;20021;-82
2024/04/18 07:36:47;;;;;;;4.18;2.28;;;;;;;10.68;45.22;101393.63;5229074;27;20018;-82
2024/04/18 07:39:18;;;;;;;4.47;2.30;;;;;;;10.72;45.03;101393.28;5212136;27;20016;-82
2024/04/18 07:41:48;;;;;;;5.20;2.60;;;;;;;10.82;44.20;101397.00;5215508;27;20082;-82
2024/04/18 07:44:21;;;;;;;4.95;2.20;;;;;;;10.91;43.88;101399.00;5266789;27;20007;-81
2024/04/18 07:46:53;;;;;;;4.32;2.05;;;;;;;10.97;43.68;101403.13;5240589;26;20029;-82
2024/04/18 07:49:20;;;;;;;5.90;2.00;;;;;;;11.00;43.57;101405.59;5317158;26;20054;-82
2024/04/18 07:51:50;;;;;;;4.10;1.98;;;;;;;11.04;43.09;101415.31;5257677;27;20006;-82
2024/04/18 07:54:20;;;;;;;5.07;2.20;;;;;;;11.03;42.53;101410.84;5266882;27;20011;-82
2024/04/18 07:56:50;;;;;;;5.00;2.42;;;;;;;11.03;42.19;101419.06;5294166;26;20006;-82
2024/04/18 07:59:23;;;;;;;4.45;2.60;;;;;;;11.03;41.60;101431.88;5215484;27;20021;-82
2024/04/18 08:01:54;;;;;;;6.97;2.75;;;;;;;10.94;41.11;101426.16;5238174;26;20021;-81
2024/04/18 08:04:27;;;;;;;6.63;2.72;;;;;;;10.87;41.41;101430.38;5315721;26;20471;-81
2024/04/18 08:07:17;;;;;;;5.60;2.10;;;;;;;10.82;41.72;101427.09;5309917;26;20019;-82
2024/04/18 08:09:55;;;;;;;4.35;2.10;;;;;;;10.79;41.66;101429.25;5317210;26;20021;-82
2024/04/18 08:12:34;;;;;;;4.10;1.75;;;;;;;10.74;41.99;101434.19;5249781;27;20087;-82
2024/04/18 08:15:13;;;;;;;3.42;1.60;;;;;;;10.75;41.71;101435.94;5272112;26;20738;-82
2024/04/18 08:17:49;;;;;;;3.47;1.70;;;;;;;10.73;42.17;101440.69;5265215;27;20018;-81
2024/04/18 08:20:19;;;;;;;3.72;1.70;;;;;;;10.76;42.14;101445.91;5257498;27;20013;-82
2024/04/18 08:22:50;;;;;;;3.85;1.88;;;;;;;10.74;42.17;101448.75;5245181;27;20002;-82
2024/04/18 08:25:20;;;;;;;5.10;1.92;;;;;;;10.76;41.89;101454.13;5250966;27;20033;-82
2024/04/18 08:27:52;;;;;;;3.35;1.60;;;;;;;10.79;42.28;101459.34;5295250;27;20527;-83
2024/04/18 08:30:24;;;;;;;5.97;2.25;;;;;;;10.85;42.02;101458.84;5253840;27;20016;-81
2024/04/18 08:32:54;;;;;;;4.07;1.67;;;;;;;10.88;42.24;101467.72;5249343;27;20080;-82
2024/04/18 08:35:24;;;;;;;4.43;1.90;;;;;;;10.95;42.20;101465.34;5279344;27;20755;-82
2024/04/18 08:37:55;;;;;;;3.05;1.77;;;;;;;10.99;41.92;101462.25;5241036;27;20029;-82
2024/04/18 08:40:29;;;;;;;3.80;1.90;;;;;;;11.10;41.43;101464.13;5301288;26;20434;-82
2024/04/18 08:42:59;;;;;;;3.22;1.52;;;;;;;11.13;41.90;101465.75;5240349;27;20021;-82
2024/04/18 08:45:36;;;;;;;4.13;1.40;;;;;;;11.22;40.98;101475.97;5256112;27;20394;-82
2024/04/18 08:48:08;;;;;;;3.90;1.73;;;;;;;11.27;40.92;101469.13;5237994;27;20886;-81
2024/04/18 08:50:42;;;;;;;3.20;1.55;;;;;;;11.30;40.99;101462.53;5250405;27;20475;-83
2024/04/18 08:53:13;;;;;;;3.50;1.60;;;;;;;11.32;40.66;101475.09;5294350;27;20364;-82
2024/04/18 08:55:47;;;;;;;4.25;1.63;;;;;;;11.37;39.87;101466.50;5272194;27;20832;-82
2024/04/18 08:58:18;;;;;;;2.92;1.30;;;;;;;11.36;40.64;101468.38;5229772;27;20422;-83
2024/04/18 09:00:51;;;;;;;3.63;1.63;;;;;;;11.39;39.85;101460.91;5261094;27;20474;-82
2024/04/18 09:03:21;;;;;;;4.00;1.52;;;;;;;11.39;40.29;101461.75;5221091;27;20466;-82
2024/04/18 09:05:51;;;;;;;4.25;1.60;;;;;;;11.41;40.26;101458.91;5278462;27;20020;-83
2024/04/18 09:08:23;;;;;;;3.35;1.60;;;;;;;11.40;39.95;101463.50;5261389;27;20021;-83
2024/04/18 09:10:54;;;;;;;3.27;1.50;;;;;;;11.39;39.71;101458.16;5245852;27;20008;-82
2024/04/18 09:13:24;;;;;;;2.47;1.30;;;;;;;11.35;39.26;101472.13;5265134;27;20756;-82
2024/04/18 09:15:58;;;;;;;3.85;1.58;;;;;;;11.35;38.80;101476.72;5293377;27;20433;-82
2024/04/18 09:18:31;;;;;;;;;;;;;;;11.05;39.74;101479.19;5242522;27;20014;-82
2024/04/18 09:21:01;;;;;;;2.78;1.27;;;;;;;11.21;39.70;101485.19;5313786;26;19927;-82
2024/04/18 09:23:30;;;;;;;3.70;1.30;;;;;;;11.24;39.62;101477.56;5265631;27;20079;-82
2024/04/18 09:26:02;;;;;;;1.98;1.17;;;;;;;11.21;39.98;101475.09;5275152;27;20017;-83
2024/04/18 09:28:32;;;;;;;2.75;1.33;;;;;;;11.20;39.93;101481.56;5254075;27;20505;-82
2024/04/18 09:31:06;;;;;;;3.95;1.42;;;;;;;11.22;39.37;101478.72;5277679;27;20006;-82
2024/04/18 09:33:43;;;;;;;4.18;1.50;;;;;;;11.25;39.88;101479.31;5319375;26;20069;-82
2024/04/18 09:36:17;;;;;;;4.82;1.40;;;;;;;11.28;40.52;101484.56;5265672;27;20006;-83
2024/04/18 09:38:49;;;;;;;3.10;1.55;;;;;;;11.33;39.63;101495.16;5260011;27;20010;-82
2024/04/18 09:41:25;;;;;;;3.42;1.67;;;;;;;11.37;38.98;101496.66;5271172;27;20010;-82
2024/04/18 09:44:05;;;;;;;3.85;1.65;;;;;;;11.41;38.94;101495.41;5327357;26;20007;-83
2024/04/18 09:46:37;;;;;;;4.05;1.95;;;;;;;11.43;39.07;101496.16;5299983;27;20012;-82
2024/04/18 09:49:08;;;;;;;;;;;;;;;11.18;39.68;101494.53;5267117;27;20035;-83
2024/04/18 09:51:38;;;;;;;4.35;1.90;;;;;;;11.45;39.85;101502.38;5282456;27;19934;-81
2024/04/18 09:54:08;;;;;;;4.40;1.92;;;;;;;11.50;39.51;101494.66;5267821;27;20012;-83
2024/04/18 09:56:40;;;;;;;4.72;2.17;;;;;;;11.54;38.87;101496.16;5313719;26;20009;-82
2024/04/18 09:59:12;;;;;;;3.83;1.95;;;;;;;11.57;38.56;101497.75;5272624;27;20013;-82
2024/04/18 10:01:45;;;;;;;4.07;1.75;;;;;;;11.58;38.53;101494.91;5290846;27;20016;-83
2024/04/18 10:04:15;;;;;;;4.05;2.17;;;;;;;11.58;39.08;101505.88;5311929;26;20018;-83
2024/04/18 10:06:48;;;;;;;3.30;2.17;;;;;;;11.63;38.85;101500.06;5326729;26;20013;-83
2024/04/18 10:09:20;;;;;;;;;;;;;;;11.37;38.98;101504.88;5273968;27;20046;-83
2024/04/18 10:11:51;;;;;;;2.83;1.65;;;;;;;11.64;39.44;101501.78;5301486;26;19927;-83
2024/04/18 10:14:24;;;;;;;5.15;2.00;;;;;;;11.70;39.60;101504.91;5296139;26;20405;-83
2024/04/18 10:16:56;;;;;;;3.05;1.80;;;;;;;11.79;38.21;101500.53;5252084;27;20081;-83
2024/04/18 10:19:32;;;;;;;2.97;1.65;;;;;;;11.84;37.70;101502.88;5325136;26;20422;-83
2024/04/18 10:22:03;;;;;;;1.95;1.23;;;;;;;11.88;38.19;101502.53;5306095;26;20041;-84
2024/04/18 10:24:53;;;;;;;3.22;1.50;;;;;;;11.91;38.09;101501.38;5243007;27;20011;-82
2024/04/18 10:27:23;;;;;;;2.80;1.30;;;;;;;11.96;37.86;101501.88;5313778;26;20006;-83
2024/04/18 10:29:56;;;;;;;4.53;1.90;;;;;;;12.01;38.11;101505.09;5261897;27;20078;-82
2024/04/18 10:32:29;;;;;;;3.05;1.40;;;;;;;12.02;37.12;101506.84;5257978;27;20013;-82
2024/04/18 10:35:01;;;;;;;2.65;1.58;;;;;;;12.09;37.52;101499.84;5251209;27;20015;-84
2024/04/18 10:37:30;;;;;;;3.13;1.40;;;;;;;12.10;37.43;101509.81;5256801;27;20013;-83
2024/04/18 10:40:00;;;;;;;2.20;1.30;;;;;;;12.13;37.02;101504.06;5240969;27;20478;-83
2024/04/18 10:42:32;;;;;;;3.00;1.40;;;;;;;12.17;37.42;101504.69;5305650;26;20348;-83
2024/04/18 10:45:02;;;;;;;4.28;1.52;;;;;;;12.20;37.10;101504.44;5257005;27;20018;-83
2024/04/18 10:47:37;;;;;;;3.25;1.50;;;;;;;12.29;35.68;101506.41;5328402;26;20007;-84
2024/04/18 10:50:07;;;;;;;2.55;1.20;;;;;;;12.30;36.20;101509.00;5312368;26;20011;-83
2024/04/18 10:52:37;;;;;;;2.50;1.10;;;;;;;12.34;36.71;101506.88;5291190;27;20002;-83
2024/04/18 10:55:07;;;;;;;2.22;1.10;;;;;;;12.38;36.30;101514.72;5265475;27;20010;-83
2024/04/18 10:57:38;;;;;;;3.25;1.30;;;;;;;12.45;36.25;101521.44;5281724;27;20017;-81
2024/04/18 11:00:09;;;;;;;2.15;0.88;;;;;;;12.53;36.05;101511.69;5248966;27;20018;-82
2024/04/18 11:02:41;;;;;;;2.22;1.13;;;;;;;12.58;34.87;101513.00;5270764;27;20006;-81
2024/04/18 11:05:11;;;;;;;2.80;1.00;;;;;;;12.61;35.64;101517.38;5265339;27;20086;-82
2024/04/18 11:07:53;;;;;;;1.80;0.93;;;;;;;12.67;34.68;101514.13;5248687;27;20120;-82
2024/04/18 11:10:26;;;;;;;1.58;0.93;;;;;;;12.73;34.85;101521.84;5265632;27;20352;-83
2024/04/18 11:12:57;;;;;;;2.50;1.00;;;;;;;12.74;35.12;101524.47;5291182;27;20081;-82
2024/04/18 11:15:27;;;;;;;2.58;0.98;;;;;;;12.75;34.93;101526.19;5263316;27;20022;-81
2024/04/18 11:18:04;;;;;;;1.95;0.90;;;;;;;12.75;33.93;101504.22;5297858;27;20007;-83
2024/04/18 11:20:35;;;;;;;2.08;1.05;;;;;;;12.79;35.14;101516.69;5268193;27;20002;-83
2024/04/18 11:23:06;;;;;;;1.33;0.80;;;;;;;12.83;35.27;101509.06;5260211;27;20084;-82
2024/04/18 11:25:44;;;;;;;1.45;0.90;;;;;;;12.85;35.17;101507.94;5255726;26;20006;-83
2024/04/18 11:28:16;;;;;;;2.50;1.13;;;;;;;12.91;34.85;101508.38;5303863;26;20007;-82
2024/04/18 11:30:48;;;;;;;2.45;1.38;;;;;;;12.94;34.82;101516.38;5269534;27;20030;-81
2024/04/18 11:33:24;;;;;;;2.50;1.02;;;;;;;13.00;32.89;101518.56;5246630;27;20038;-82
2024/04/18 11:35:55;;;;;;;2.75;1.13;;;;;;;12.99;34.22;101511.34;5260222;26;20003;-82
2024/04/18 11:38:27;;;;;;;2.65;1.00;;;;;;;13.02;34.42;101511.94;5240455;27;20415;-82
2024/04/18 11:41:00;;;;;;;1.75;0.90;;;;;;;13.00;34.58;101515.81;5242133;27;20612;-82
2024/04/18 11:43:30;;;;;;;2.97;1.10;;;;;;;13.04;34.02;101522.78;5252541;27;20035;-83
2024/04/18 11:46:00;;;;;;;1.45;0.90;;;;;;;13.07;33.63;101522.53;5253864;27;20078;-83
2024/04/18 11:48:32;;;;;;;2.05;0.90;;;;;;;13.07;32.93;101520.66;5261317;27;20427;-81
2024/04/18 11:51:02;;;;;;;;;;;;;;;12.80;34.07;101515.69;5252316;27;20018;-82
2024/04/18 11:53:33;;;;;;;2.08;0.85;;;;;;;13.03;34.14;101515.56;5256222;27;20681;-83
2024/04/18 11:56:03;;;;;;;2.55;0.90;;;;;;;13.07;34.08;101514.28;5219038;27;20007;-83
2024/04/18 11:58:31;;;;;;;1.88;1.00;;;;;;;13.10;33.88;101519.53;5290716;27;20018;-83
2024/04/18 12:01:01;;;;;;;2.15;0.75;;;;;;;13.10;33.54;101517.66;5319453;26;20011;-81
2024/04/18 12:03:43;;;;;;;2.60;1.13;;;;;;;13.12;32.49;101511.97;5276052;27;20017;-83
2024/04/18 12:06:31;;;;;;;1.10;0.63;;;;;;;13.08;33.44;101522.41;5241373;27;20007;-82